createdAt,value
2018-07-26T00:00:53.429Z,76.12
2018-07-26T00:03:22.750Z,76.46
2018-07-26T00:05:52.009Z,75.92
2018-07-26T00:08:21.265Z,76.22
2018-07-26T00:10:50.509Z,76.24
2018-07-26T00:13:19.517Z,76.32
2018-07-26T00:15:48.739Z,76.18
2018-07-26T00:18:18.002Z,76.66
2018-07-26T00:20:47.242Z,77.13
2018-07-26T00:23:16.498Z,76.76
2018-07-26T00:25:45.745Z,76.95
2018-07-26T00:28:14.996Z,75.75
2018-07-26T00:30:44.200Z,77.04
2018-07-26T00:33:13.478Z,76.98
2018-07-26T00:35:42.711Z,77.63
2018-07-26T00:38:12.014Z,77.67
2018-07-26T00:40:41.276Z,78.02
2018-07-26T00:43:10.537Z,78.85
2018-07-26T00:45:39.788Z,79.80
2018-07-26T00:48:09.037Z,78.63
2018-07-26T00:50:38.309Z,79.24
2018-07-26T00:53:07.539Z,79.38
2018-07-26T00:55:36.917Z,79.62
2018-07-26T00:58:06.442Z,79.28
2018-07-26T01:00:35.954Z,78.73
2018-07-26T01:03:05.249Z,78.88
2018-07-26T01:05:34.505Z,79.02
2018-07-26T01:08:03.779Z,79.90
2018-07-26T01:10:33.078Z,79.91
2018-07-26T01:13:02.393Z,80.12
2018-07-26T01:15:31.734Z,80.72
2018-07-26T01:18:01.012Z,79.81
2018-07-26T01:20:30.387Z,79.90
2018-07-26T01:22:59.642Z,80.23
2018-07-26T01:25:28.902Z,80.58
2018-07-26T01:27:58.161Z,81.15
2018-07-26T01:30:27.501Z,81.89
2018-07-26T01:32:56.765Z,82.37
2018-07-26T01:35:26.083Z,82.91
2018-07-26T01:37:55.387Z,83.90
2018-07-26T01:40:24.698Z,84.70
2018-07-26T01:43:11.169Z,85.46
2018-07-26T01:45:40.669Z,86.01
2018-07-26T01:48:09.954Z,86.02
2018-07-26T01:50:39.513Z,86.46
2018-07-26T01:53:08.984Z,86.30
2018-07-26T01:55:38.297Z,86.64
2018-07-26T01:58:07.565Z,86.47
2018-07-26T02:00:36.863Z,86.16
2018-07-26T02:03:06.086Z,86.11
2018-07-26T02:05:35.313Z,86.51
2018-07-26T02:08:04.586Z,86.60
2018-07-26T02:10:33.856Z,86.98
2018-07-26T02:13:03.082Z,87.39
2018-07-26T02:15:32.298Z,88.06
2018-07-26T02:18:01.538Z,87.91
2018-07-26T02:20:30.769Z,88.33
2018-07-26T02:23:00.016Z,89.08
2018-07-26T02:25:29.267Z,87.97
2018-07-26T02:27:58.477Z,87.59
2018-07-26T02:30:27.742Z,88.06
2018-07-26T02:32:56.971Z,88.90
2018-07-26T02:35:26.250Z,89.22
2018-07-26T02:37:55.543Z,88.65
2018-07-26T02:40:24.780Z,87.90
2018-07-26T02:42:54.074Z,87.87
2018-07-26T02:45:23.330Z,87.64
2018-07-26T02:47:52.578Z,86.27
2018-07-26T02:50:21.972Z,86.54
2018-07-26T02:52:51.196Z,86.21
2018-07-26T02:55:20.557Z,85.71
2018-07-26T02:57:49.786Z,86.37
2018-07-26T03:00:19.023Z,86.36
2018-07-26T03:02:48.260Z,86.53
2018-07-26T03:05:17.590Z,86.90
2018-07-26T03:07:46.587Z,87.40
2018-07-26T03:10:15.826Z,86.90
2018-07-26T03:12:45.203Z,87.24
2018-07-26T03:15:14.425Z,87.15
2018-07-26T03:17:43.721Z,87.45
2018-07-26T03:20:13.046Z,87.67
2018-07-26T03:22:42.311Z,88.08
2018-07-26T03:25:11.522Z,88.73
2018-07-26T03:27:40.818Z,88.00
2018-07-26T03:30:10.054Z,88.67
2018-07-26T03:32:39.293Z,88.87
2018-07-26T03:35:08.504Z,90.07
2018-07-26T03:37:37.757Z,89.92
2018-07-26T03:40:07.303Z,89.96
2018-07-26T03:42:36.525Z,89.35
2018-07-26T03:45:06.314Z,90.96
2018-07-26T03:47:35.568Z,92.09
2018-07-26T03:50:05.206Z,92.72
2018-07-26T03:52:34.471Z,93.11
2018-07-26T03:55:03.716Z,93.05
2018-07-26T03:57:32.999Z,93.59
2018-07-26T04:00:02.286Z,94.05
2018-07-26T04:02:31.651Z,94.72
2018-07-26T04:05:00.962Z,94.42
2018-07-26T04:07:30.289Z,94.46
2018-07-26T04:09:59.555Z,93.80
2018-07-26T04:12:28.922Z,93.93
2018-07-26T04:14:58.290Z,93.70
2018-07-26T04:17:27.622Z,92.73
2018-07-26T04:19:56.934Z,93.40
2018-07-26T04:22:26.168Z,92.85
2018-07-26T04:24:55.581Z,93.11
2018-07-26T04:27:24.860Z,93.62
2018-07-26T04:29:54.237Z,92.70
2018-07-26T04:32:23.520Z,92.06
2018-07-26T04:34:52.887Z,91.55
2018-07-26T04:37:22.142Z,90.74
2018-07-26T04:39:51.176Z,90.23
2018-07-26T04:42:20.621Z,87.05
2018-07-26T04:44:49.932Z,86.36
2018-07-26T04:47:19.228Z,85.72
2018-07-26T04:49:48.637Z,85.55
2018-07-26T04:52:18.003Z,84.50
2018-07-26T04:54:47.272Z,83.32
2018-07-26T04:57:16.535Z,83.59
2018-07-26T04:59:45.842Z,83.75
2018-07-26T05:02:15.190Z,84.39
2018-07-26T05:04:44.482Z,85.05
2018-07-26T05:07:13.745Z,84.98
2018-07-26T05:09:43.072Z,83.65
2018-07-26T05:12:12.350Z,78.25
2018-07-26T05:14:41.628Z,75.07
2018-07-26T05:17:10.888Z,73.82
2018-07-26T05:19:40.155Z,71.82
2018-07-26T05:22:09.406Z,69.66
2018-07-26T05:24:38.682Z,70.10
2018-07-26T05:27:08.503Z,67.75
2018-07-26T05:29:37.897Z,67.17
2018-07-26T05:32:07.167Z,67.94
2018-07-26T05:34:36.590Z,66.70
2018-07-26T05:37:05.827Z,67.16
2018-07-26T05:39:35.080Z,64.98
2018-07-26T05:42:04.353Z,65.26
2018-07-26T05:44:33.572Z,66.53
2018-07-26T05:47:02.784Z,66.18
2018-07-26T05:49:32.017Z,64.59
2018-07-26T05:52:01.269Z,65.09
2018-07-26T05:54:30.522Z,63.22
2018-07-26T05:57:00.066Z,61.63
2018-07-26T05:59:29.317Z,63.33
2018-07-26T06:01:58.802Z,61.54
2018-07-26T06:04:28.090Z,60.03
2018-07-26T06:06:57.426Z,62.01
2018-07-26T06:09:26.777Z,60.80
2018-07-26T06:11:56.178Z,62.58
2018-07-26T06:14:25.500Z,60.35
2018-07-26T06:16:54.814Z,63.38
2018-07-26T06:19:24.203Z,62.09
2018-07-26T06:21:53.504Z,59.82
2018-07-26T06:24:22.878Z,59.20
2018-07-26T06:26:52.207Z,60.22
2018-07-26T06:29:21.765Z,58.54
2018-07-26T06:31:51.120Z,60.37
2018-07-26T06:34:20.754Z,60.52
2018-07-26T06:36:50.094Z,60.26
2018-07-26T06:39:19.502Z,59.37
2018-07-26T06:41:48.942Z,60.23
2018-07-26T06:44:18.767Z,58.03
2018-07-26T06:46:48.095Z,57.86
2018-07-26T06:49:17.407Z,58.34
2018-07-26T06:51:46.765Z,58.80
2018-07-26T06:54:16.170Z,59.11
2018-07-26T06:56:45.511Z,57.82
2018-07-26T06:59:14.986Z,57.68
2018-07-26T07:01:44.341Z,57.15
2018-07-26T07:04:13.660Z,56.32
2018-07-26T07:06:42.788Z,56.22
2018-07-26T07:09:12.798Z,55.57
2018-07-26T07:11:42.199Z,54.53
2018-07-26T07:14:11.582Z,55.21
2018-07-26T07:16:41.066Z,54.78
2018-07-26T07:19:10.442Z,53.74
2018-07-26T07:21:39.718Z,53.29
2018-07-26T07:24:09.074Z,52.28
2018-07-26T07:26:38.346Z,50.69
2018-07-26T07:29:07.853Z,49.24
2018-07-26T07:31:37.192Z,51.25
2018-07-26T07:34:06.718Z,49.48
2018-07-26T07:36:35.992Z,49.39
2018-07-26T07:39:08.904Z,50.71
2018-07-26T07:41:38.347Z,48.14
2018-07-26T07:44:08.462Z,48.30
2018-07-26T07:46:37.940Z,48.26
2018-07-26T07:49:07.611Z,48.42
2018-07-26T07:51:36.898Z,47.98
2018-07-26T07:54:06.204Z,46.76
2018-07-26T07:56:35.457Z,47.98
2018-07-26T07:59:04.973Z,46.99
2018-07-26T08:01:34.295Z,46.86
2018-07-26T08:04:03.577Z,46.30
2018-07-26T08:06:32.973Z,46.11
2018-07-26T08:09:02.249Z,46.70
2018-07-26T08:11:31.567Z,45.74
2018-07-26T08:14:00.783Z,44.84
2018-07-26T08:16:30.035Z,45.30
2018-07-26T08:18:59.310Z,45.05
2018-07-26T08:21:28.566Z,43.91
2018-07-26T08:23:57.799Z,44.35
2018-07-26T08:26:27.103Z,45.13
2018-07-26T08:28:56.148Z,43.58
2018-07-26T08:31:25.423Z,43.66
2018-07-26T08:33:54.779Z,43.09
2018-07-26T08:36:24.193Z,43.76
2018-07-26T08:38:53.470Z,43.24
2018-07-26T08:41:29.190Z,43.17
2018-07-26T08:43:58.470Z,42.54
2018-07-26T08:46:27.713Z,41.90
2018-07-26T08:48:56.970Z,42.63
2018-07-26T08:51:26.534Z,42.07
2018-07-26T08:53:55.858Z,40.52
2018-07-26T08:56:25.205Z,41.17
2018-07-26T08:58:54.533Z,40.20
2018-07-26T09:01:23.837Z,39.69
2018-07-26T09:03:53.224Z,39.05
2018-07-26T09:06:22.682Z,37.61
2018-07-26T09:08:52.079Z,37.04
2018-07-26T09:11:21.398Z,36.23
2018-07-26T09:13:50.793Z,36.34
2018-07-26T09:16:20.042Z,36.23
2018-07-26T09:18:49.549Z,37.12
2018-07-26T09:21:18.852Z,37.17
2018-07-26T09:23:48.136Z,36.19
2018-07-26T09:26:17.721Z,35.91
2018-07-26T09:28:46.990Z,35.57
2018-07-26T09:31:16.460Z,34.16
2018-07-26T09:33:45.871Z,34.77
2018-07-26T09:36:15.133Z,35.58
2018-07-26T09:38:44.560Z,35.02
2018-07-26T09:41:14.842Z,33.78
2018-07-26T09:43:44.865Z,34.32
2018-07-26T09:46:14.495Z,33.72
2018-07-26T09:48:44.080Z,32.19
2018-07-26T09:51:13.439Z,33.36
2018-07-26T09:53:42.735Z,32.79
2018-07-26T09:56:12.029Z,33.64
2018-07-26T09:58:41.425Z,33.39
2018-07-26T10:01:15.901Z,31.57
2018-07-26T10:03:45.262Z,34.08
2018-07-26T10:06:14.589Z,31.59
2018-07-26T10:08:44.050Z,33.43
2018-07-26T10:11:13.370Z,33.07
2018-07-26T10:13:42.678Z,33.02
2018-07-26T10:16:11.999Z,33.12
2018-07-26T10:18:41.054Z,33.24
2018-07-26T10:21:10.415Z,33.16
2018-07-26T10:23:39.759Z,31.77
2018-07-26T10:26:09.057Z,33.10
2018-07-26T10:28:38.451Z,32.36
2018-07-26T10:31:08.183Z,33.86
2018-07-26T10:33:37.676Z,33.53
2018-07-26T10:36:06.987Z,32.77
2018-07-26T10:38:36.384Z,33.40
2018-07-26T10:41:05.720Z,31.69
2018-07-26T10:43:35.030Z,32.07
2018-07-26T10:46:04.400Z,32.18
2018-07-26T10:48:33.761Z,32.81
2018-07-26T10:51:03.078Z,32.06
2018-07-26T10:53:32.363Z,32.13
2018-07-26T10:56:01.675Z,30.73
2018-07-26T10:58:31.002Z,31.15
2018-07-26T11:01:00.351Z,30.31
2018-07-26T11:03:29.815Z,30.62
2018-07-26T11:05:59.285Z,30.37
2018-07-26T11:08:28.750Z,31.37
2018-07-26T11:10:58.135Z,30.38
2018-07-26T11:13:27.461Z,30.06
2018-07-26T11:15:56.817Z,29.90
2018-07-26T11:18:26.769Z,29.25
2018-07-26T11:20:56.158Z,29.34
2018-07-26T11:23:25.589Z,30.06
2018-07-26T11:25:54.902Z,29.57
2018-07-26T11:28:24.197Z,29.59
2018-07-26T11:30:53.570Z,29.45
2018-07-26T11:33:22.873Z,29.64
2018-07-26T11:35:52.200Z,29.11
2018-07-26T11:38:21.492Z,29.46
2018-07-26T11:40:50.579Z,29.07
2018-07-26T11:43:19.953Z,29.81
2018-07-26T11:45:49.411Z,29.31
2018-07-26T11:48:18.714Z,28.94
2018-07-26T11:50:48.152Z,29.10
2018-07-26T11:53:17.567Z,29.83
2018-07-26T11:55:46.902Z,30.18
2018-07-26T11:58:16.220Z,30.87
2018-07-26T12:00:45.525Z,30.19
2018-07-26T12:03:14.808Z,30.93
2018-07-26T12:05:44.134Z,30.31
2018-07-26T12:08:13.434Z,28.89
2018-07-26T12:10:42.706Z,29.64
2018-07-26T12:13:12.026Z,30.22
2018-07-26T12:15:41.378Z,29.33
2018-07-26T12:18:10.730Z,29.36
2018-07-26T12:20:40.078Z,29.96
2018-07-26T12:23:09.429Z,30.15
2018-07-26T12:25:38.700Z,29.48
2018-07-26T12:28:08.450Z,28.91
2018-07-26T12:30:37.710Z,29.70
2018-07-26T12:33:06.993Z,29.40
2018-07-26T12:35:36.429Z,27.94
2018-07-26T12:38:05.702Z,28.64
2018-07-26T12:40:35.004Z,28.87
2018-07-26T12:43:04.270Z,29.00
2018-07-26T12:45:33.605Z,27.17
2018-07-26T12:48:03.002Z,27.32
2018-07-26T12:50:32.455Z,27.28
2018-07-26T12:53:01.911Z,27.69
2018-07-26T12:55:30.927Z,28.05
2018-07-26T12:58:00.320Z,27.06
2018-07-26T13:00:29.630Z,28.34
2018-07-26T13:02:59.001Z,29.29
2018-07-26T13:05:28.327Z,29.45
2018-07-26T13:07:57.706Z,30.68
2018-07-26T13:10:27.215Z,29.83
2018-07-26T13:12:56.308Z,28.12
2018-07-26T13:15:25.658Z,28.46
2018-07-26T13:17:54.986Z,27.55
2018-07-26T13:20:24.278Z,27.92
2018-07-26T13:22:53.317Z,27.52
2018-07-26T13:25:22.630Z,27.31
2018-07-26T13:27:52.031Z,27.54
2018-07-26T13:30:21.310Z,27.41
2018-07-26T13:32:50.695Z,26.60
2018-07-26T13:35:20.189Z,27.50
2018-07-26T13:37:49.512Z,26.36
2018-07-26T13:40:18.869Z,26.17
2018-07-26T13:42:48.133Z,26.88
2018-07-26T13:45:17.432Z,26.38
2018-07-26T13:47:46.788Z,25.32
2018-07-26T13:50:16.125Z,25.19
2018-07-26T13:52:45.287Z,26.48
2018-07-26T13:55:14.638Z,26.79
2018-07-26T13:57:44.818Z,26.71
2018-07-26T14:00:14.890Z,26.60
2018-07-26T14:02:45.063Z,25.93
2018-07-26T14:05:14.522Z,26.23
2018-07-26T14:07:44.542Z,26.00
2018-07-26T14:10:13.941Z,26.05
2018-07-26T14:12:43.841Z,25.76
2018-07-26T14:15:13.386Z,26.17
2018-07-26T14:17:42.889Z,25.88
2018-07-26T14:20:13.051Z,26.25
2018-07-26T14:22:42.580Z,26.80
2018-07-26T14:25:11.930Z,25.75
2018-07-26T14:27:41.055Z,25.61
2018-07-26T14:30:10.833Z,27.13
2018-07-26T14:32:40.172Z,26.54
2018-07-26T14:35:09.506Z,26.68
2018-07-26T14:37:38.814Z,26.07
2018-07-26T14:40:08.124Z,27.19
2018-07-26T14:42:37.186Z,26.55
2018-07-26T14:45:06.799Z,26.75
2018-07-26T14:47:36.126Z,26.48
2018-07-26T14:50:05.840Z,25.90
2018-07-26T14:52:35.145Z,25.69
2018-07-26T14:55:04.743Z,26.51
2018-07-26T14:57:34.282Z,26.25
2018-07-26T15:00:03.725Z,26.33
2018-07-26T15:02:33.038Z,27.02
2018-07-26T15:05:02.361Z,26.16
2018-07-26T15:07:31.643Z,26.30
2018-07-26T15:10:00.964Z,26.39
2018-07-26T15:12:30.206Z,26.18
2018-07-26T15:14:59.482Z,26.87
2018-07-26T15:17:28.730Z,25.82
2018-07-26T15:19:57.996Z,25.83
2018-07-26T15:22:27.319Z,25.65
2018-07-26T15:24:56.610Z,25.73
2018-07-26T15:27:25.925Z,26.38
2018-07-26T15:29:55.355Z,25.37
2018-07-26T15:32:24.751Z,24.69
2018-07-26T15:34:54.167Z,25.78
2018-07-26T15:37:23.473Z,24.87
2018-07-26T15:39:52.797Z,25.88
2018-07-26T15:42:22.115Z,25.19
2018-07-26T15:44:51.526Z,24.89
2018-07-26T15:47:20.769Z,25.62
2018-07-26T15:49:50.091Z,25.04
2018-07-26T15:52:19.345Z,25.23
2018-07-26T15:54:48.649Z,24.37
2018-07-26T15:57:17.957Z,24.86
2018-07-26T15:59:47.226Z,26.18
2018-07-26T16:02:16.591Z,25.32
2018-07-26T16:04:45.930Z,24.87
2018-07-26T16:07:15.317Z,25.08
2018-07-26T16:09:44.633Z,24.49
2018-07-26T16:12:14.076Z,24.65
2018-07-26T16:14:43.398Z,25.04
2018-07-26T16:17:12.686Z,24.61
2018-07-26T16:19:42.077Z,24.63
2018-07-26T16:22:11.381Z,24.77
2018-07-26T16:24:40.764Z,24.55
2018-07-26T16:27:10.098Z,24.75
2018-07-26T16:29:39.416Z,25.68
2018-07-26T16:32:08.823Z,25.17
2018-07-26T16:34:38.150Z,25.35
2018-07-26T16:37:07.521Z,25.94
2018-07-26T16:39:36.894Z,25.17
2018-07-26T16:42:06.339Z,25.04
2018-07-26T16:44:35.739Z,24.68
2018-07-26T16:47:05.245Z,25.54
2018-07-26T16:49:34.695Z,25.34
2018-07-26T16:52:04.200Z,24.37
2018-07-26T16:54:33.494Z,24.84
2018-07-26T16:57:02.887Z,25.14
2018-07-26T16:59:32.406Z,24.93
2018-07-26T17:02:02.170Z,22.99
2018-07-26T17:04:31.548Z,21.92
2018-07-26T17:07:01.507Z,22.78
2018-07-26T17:09:30.850Z,23.79
2018-07-26T17:12:00.348Z,24.47
2018-07-26T17:14:29.675Z,24.10
2018-07-26T17:16:59.083Z,23.91
2018-07-26T17:19:29.143Z,22.93
2018-07-26T17:21:58.440Z,23.19
2018-07-26T17:24:27.856Z,23.26
2018-07-26T17:26:57.279Z,25.08
2018-07-26T17:29:26.654Z,24.11
2018-07-26T17:31:56.117Z,24.23
2018-07-26T17:34:25.432Z,26.49
2018-07-26T17:36:54.743Z,27.51
2018-07-26T17:39:24.000Z,28.46
2018-07-26T17:41:53.397Z,28.37
2018-07-26T17:44:22.701Z,29.18
2018-07-26T17:46:52.062Z,30.09
2018-07-26T17:49:21.411Z,30.25
2018-07-26T17:51:50.730Z,30.93
2018-07-26T17:54:20.102Z,30.60
2018-07-26T17:56:49.442Z,30.64
2018-07-26T17:59:18.720Z,31.42
2018-07-26T18:01:48.181Z,30.92
2018-07-26T18:04:17.571Z,31.15
2018-07-26T18:06:47.083Z,31.01
2018-07-26T18:09:16.498Z,30.67
2018-07-26T18:11:45.714Z,29.78
2018-07-26T18:14:14.745Z,30.30
2018-07-26T18:16:44.236Z,30.48
2018-07-26T18:19:13.365Z,30.59
2018-07-26T18:21:43.094Z,31.10
2018-07-26T18:24:12.363Z,30.81
2018-07-26T18:26:41.633Z,31.62
2018-07-26T18:29:11.120Z,32.08
2018-07-26T18:31:40.607Z,31.85
2018-07-26T18:34:10.405Z,32.25
2018-07-26T18:36:39.797Z,32.22
2018-07-26T18:39:11.849Z,31.81
2018-07-26T18:41:41.305Z,31.88
2018-07-26T18:44:11.165Z,32.09
2018-07-26T18:46:40.510Z,32.86
2018-07-26T18:49:10.241Z,33.30
2018-07-26T18:51:40.669Z,33.47
2018-07-26T18:54:11.217Z,34.35
2018-07-26T18:56:40.250Z,34.46
2018-07-26T18:59:10.517Z,34.95
2018-07-26T19:01:39.836Z,35.48
2018-07-26T19:04:09.524Z,35.49
2018-07-26T19:06:38.655Z,35.13
2018-07-26T19:09:11.642Z,35.42
2018-07-26T19:11:41.657Z,35.76
2018-07-26T19:14:11.555Z,36.88
2018-07-26T19:16:40.961Z,36.08
2018-07-26T19:19:11.008Z,36.45
2018-07-26T19:21:40.382Z,37.06
2018-07-26T19:24:10.188Z,37.75
2018-07-26T19:26:39.510Z,37.56
2018-07-26T19:29:09.043Z,38.19
2018-07-26T19:31:38.691Z,38.42
2018-07-26T19:34:11.145Z,38.75
2018-07-26T19:36:40.507Z,39.24
2018-07-26T19:39:11.837Z,39.51
2018-07-26T19:41:41.848Z,40.46
2018-07-26T19:44:11.348Z,40.77
2018-07-26T19:46:40.575Z,40.97
2018-07-26T19:49:09.925Z,41.90
2018-07-26T19:51:39.270Z,42.37
2018-07-26T19:54:08.757Z,42.71
2018-07-26T19:56:38.021Z,43.71
2018-07-26T19:59:07.381Z,44.38
2018-07-26T20:01:36.525Z,44.15
2018-07-26T20:04:06.064Z,44.57
2018-07-26T20:06:35.425Z,44.75
2018-07-26T20:09:08.223Z,45.90
2018-07-26T20:11:37.591Z,46.16
2018-07-26T20:14:07.842Z,46.42
2018-07-26T20:16:37.540Z,46.87
2018-07-26T20:19:07.022Z,46.35
2018-07-26T20:21:36.452Z,46.67
2018-07-26T20:24:05.843Z,47.06
2018-07-26T20:26:35.188Z,47.49
2018-07-26T20:29:04.476Z,47.66
2018-07-26T20:31:34.243Z,47.09
2018-07-26T20:34:03.556Z,47.79
2018-07-26T20:36:32.878Z,48.48
2018-07-26T20:39:02.310Z,48.43
2018-07-26T20:41:31.662Z,48.82
2018-07-26T20:44:01.112Z,49.69
2018-07-26T20:46:30.491Z,49.27
2018-07-26T20:48:59.819Z,50.90
2018-07-26T20:51:29.170Z,49.15
2018-07-26T20:53:58.615Z,49.64
2018-07-26T20:56:27.872Z,49.38
2018-07-26T20:58:57.174Z,49.84
2018-07-26T21:01:26.443Z,50.00
2018-07-26T21:03:55.755Z,49.66
2018-07-26T21:06:25.046Z,49.21
2018-07-26T21:08:54.400Z,50.92
2018-07-26T21:11:23.714Z,52.00
2018-07-26T21:13:53.098Z,51.67
2018-07-26T21:16:22.509Z,50.62
2018-07-26T21:18:51.771Z,50.88
2018-07-26T21:21:21.134Z,51.50
2018-07-26T21:23:50.421Z,51.05
2018-07-26T21:26:19.728Z,51.19
2018-07-26T21:28:48.746Z,51.53
2018-07-26T21:31:18.037Z,51.50
2018-07-26T21:33:47.323Z,52.92
2018-07-26T21:36:16.625Z,53.48
2018-07-26T21:38:45.889Z,53.01
2018-07-26T21:41:15.555Z,52.09
2018-07-26T21:43:44.816Z,52.59
2018-07-26T21:46:14.361Z,52.33
2018-07-26T21:48:43.673Z,51.78
2018-07-26T21:51:13.138Z,52.50
2018-07-26T21:53:42.504Z,52.28
2018-07-26T21:56:11.804Z,51.93
2018-07-26T21:58:41.076Z,52.73
2018-07-26T22:01:10.367Z,53.11
2018-07-26T22:03:39.671Z,53.02
2018-07-26T22:06:09.030Z,53.42
2018-07-26T22:08:38.383Z,53.97
2018-07-26T22:11:07.755Z,53.88
2018-07-26T22:13:37.108Z,54.64
2018-07-26T22:16:06.585Z,54.87
2018-07-26T22:18:35.847Z,55.39
2018-07-26T22:21:05.199Z,56.25
2018-07-26T22:23:34.486Z,56.51
2018-07-26T22:26:03.773Z,56.45
2018-07-26T22:28:33.143Z,57.22
2018-07-26T22:31:02.558Z,57.54
2018-07-26T22:33:31.935Z,58.33
2018-07-26T22:36:01.241Z,58.74
2018-07-26T22:38:30.560Z,58.49
2018-07-26T22:40:59.924Z,58.62
2018-07-26T22:43:29.259Z,59.45
2018-07-26T22:45:58.571Z,59.01
2018-07-26T22:48:27.852Z,59.53
2018-07-26T22:50:57.161Z,59.82
2018-07-26T22:53:26.445Z,59.78
2018-07-26T22:55:55.754Z,60.53
2018-07-26T22:58:25.081Z,59.87
2018-07-26T23:00:54.393Z,60.69
2018-07-26T23:03:23.637Z,60.54
2018-07-26T23:05:52.904Z,60.79
2018-07-26T23:08:22.312Z,60.50
2018-07-26T23:10:51.574Z,60.84
2018-07-26T23:13:20.991Z,61.02
2018-07-26T23:15:50.302Z,61.45
2018-07-26T23:18:19.721Z,61.99
2018-07-26T23:20:49.008Z,61.77
2018-07-26T23:23:18.329Z,61.83
2018-07-26T23:25:47.612Z,61.08
2018-07-26T23:28:17.009Z,60.94
2018-07-26T23:30:46.032Z,61.07
2018-07-26T23:33:15.344Z,60.91
2018-07-26T23:35:44.635Z,60.69
2018-07-26T23:38:13.895Z,61.29
2018-07-26T23:40:43.203Z,61.25
2018-07-26T23:43:12.502Z,61.86
2018-07-26T23:45:41.757Z,62.21
2018-07-26T23:48:11.032Z,62.75
2018-07-26T23:50:40.410Z,62.50
2018-07-26T23:53:09.716Z,63.28
2018-07-26T23:55:39.026Z,62.52
2018-07-26T23:58:08.323Z,61.80
